Time;durP1;ratioP1;P1;durP2;ratioP2;P2;SDS_P1;SDS_P2;PMS_P1;PMS_P2;Temp;Humidity;BMP_temperature;BMP_pressure;BME280_temperature;BME280_humidity;BME280_pressure;Samples;Min_cycle;Max_cycle;Signal;HPM_P1;HPM_P2
2023/10/28 07:32:21;;;;;;;9.57;5.70;;;;;;;2.80;76.77;97676.47;6205853;23;20033;-92
2023/10/28 07:34:50;;;;;;;8.63;5.80;;;;;;;2.44;76.93;97602.78;6158417;23;20111;-92
2023/10/28 07:37:20;;;;;;;23.42;6.13;;;;;;;2.56;76.62;97630.84;6126910;23;20051;-90
2023/10/28 07:39:46;;;;;;;10.68;6.10;;;;;;;2.69;76.26;97621.13;6196155;23;20052;-89
2023/10/28 07:42:14;;;;;;;9.98;6.15;;;;;;;2.54;76.28;97600.66;6149640;23;20076;-91
2023/10/28 07:44:40;;;;;;;11.40;6.25;;;;;;;2.99;76.27;97660.16;6197740;23;20103;-89
2023/10/28 07:47:08;;;;;;;8.73;6.28;;;;;;;2.88;75.82;97642.59;6197173;23;20020;-89
2023/10/28 07:49:52;;;;;;;9.15;5.72;;;;;;;2.46;76.18;97584.44;6196469;23;20020;-90
2023/10/28 07:52:19;;;;;;;8.98;6.07;;;;;;;2.82;76.89;97636.50;6227708;23;20140;-87
2023/10/28 07:54:47;;;;;;;16.45;7.22;;;;;;;2.85;76.73;97659.38;6179617;23;20055;-86
2023/10/28 07:57:13;;;;;;;6.88;5.32;;;;;;;2.78;76.75;97635.50;6228013;23;20020;-88
2023/10/28 07:59:40;;;;;;;10.95;5.28;;;;;;;2.52;76.62;97594.81;6204662;23;20008;-91
2023/10/28 08:02:07;;;;;;;11.50;5.13;;;;;;;2.65;75.99;97593.19;6172309;23;20020;-91
2023/10/28 08:04:33;;;;;;;10.18;4.53;;;;;;;2.73;75.79;97599.75;6199768;23;20068;-88
2023/10/28 08:07:01;;;;;;;;;;;;;;;3.08;75.25;97659.41;6176050;23;20046;-89
2023/10/28 08:09:29;;;;;;;9.93;4.88;;;;;;;3.15;75.58;97667.91;6204620;23;19916;-90
2023/10/28 08:11:55;;;;;;;10.20;5.60;;;;;;;3.19;75.74;97656.19;6153665;23;20446;-89
2023/10/28 08:14:26;;;;;;;8.85;5.40;;;;;;;3.03;74.74;97633.34;6175226;23;20403;-89
2023/10/28 08:16:52;;;;;;;19.63;5.88;;;;;;;3.14;75.21;97647.41;6197904;23;20354;-91
2023/10/28 08:19:18;;;;;;;14.55;6.32;;;;;;;3.09;75.28;97615.13;6201571;23;20017;-91
2023/10/28 08:21:44;;;;;;;9.27;5.97;;;;;;;3.37;74.67;97654.41;6150574;23;20016;-90
2023/10/28 08:24:15;;;;;;;8.73;5.00;;;;;;;3.30;75.13;97627.03;6152383;23;20492;-89
2023/10/28 08:26:45;;;;;;;6.45;3.25;;;;;;;2.96;74.67;97605.97;6199392;23;20112;-90
2023/10/28 08:29:15;;;;;;;7.07;5.15;;;;;;;3.18;75.33;97640.28;6178762;23;20028;-91
2023/10/28 08:31:43;;;;;;;11.05;5.35;;;;;;;3.08;75.54;97608.94;6203866;23;20036;-91
2023/10/28 08:35:01;;;;;;;8.00;5.00;;;;;;;3.28;75.15;97643.56;6200859;23;20024;-90
2023/10/28 08:37:50;;;;;;;9.65;5.35;;;;;;;2.86;75.14;97571.13;6233953;23;20000;-89
2023/10/28 08:40:26;;;;;;;8.85;4.43;;;;;;;2.44;75.84;97530.78;6179137;23;20378;-91
2023/10/28 08:43:08;;;;;;;10.15;5.70;;;;;;;3.17;75.38;97625.19;6201600;23;20017;-89
2023/10/28 08:45:35;;;;;;;8.80;5.38;;;;;;;2.88;75.41;97574.31;6227002;23;20039;-88
2023/10/28 08:48:32;;;;;;;8.63;5.05;;;;;;;3.17;75.96;97619.78;6159357;23;20000;-89
2023/10/28 08:51:10;;;;;;;7.75;4.70;;;;;;;3.13;76.01;97602.63;6185909;23;20048;-90
2023/10/28 08:53:36;;;;;;;;;;;;;;;2.95;76.32;97604.41;6154652;23;20031;-90
2023/10/28 08:56:03;;;;;;;7.67;4.40;;;;;;;2.84;77.12;97603.81;6134330;23;19904;-91
2023/10/28 08:58:30;;;;;;;8.45;4.25;;;;;;;2.78;76.96;97578.03;6200186;23;20252;-90
2023/10/28 09:01:01;;;;;;;9.37;5.07;;;;;;;2.70;77.18;97549.88;6171434;23;20027;-88
2023/10/28 09:03:31;;;;;;;10.20;3.38;;;;;;;2.47;76.91;97524.78;6173525;23;20020;-91
2023/10/28 09:05:59;;;;;;;7.75;3.90;;;;;;;2.59;77.41;97535.84;6151266;23;20020;-91
2023/10/28 09:08:27;;;;;;;5.43;3.95;;;;;;;2.81;77.36;97561.25;6201800;23;20446;-90
2023/10/28 09:10:56;;;;;;;5.00;3.40;;;;;;;2.81;77.46;97553.97;6149226;23;20031;-90
2023/10/28 09:13:24;;;;;;;8.55;3.80;;;;;;;2.66;77.35;97529.25;6173976;23;20044;-88
2023/10/28 09:15:53;;;;;;;8.68;3.38;;;;;;;2.37;78.05;97510.75;6151358;23;20016;-90
2023/10/28 09:18:29;;;;;;;6.03;3.22;;;;;;;2.53;78.45;97537.06;6151938;23;20534;-87
2023/10/28 09:20:57;;;;;;;;;;;;;;;2.69;78.60;97564.50;6198687;23;20036;-90
2023/10/28 09:23:33;;;;;;;15.88;2.95;;;;;;;2.38;78.56;97502.34;6205421;23;19916;-89
2023/10/28 09:26:00;;;;;;;11.18;3.67;;;;;;;2.37;78.37;97508.84;6179725;23;20043;-90
2023/10/28 09:28:44;;;;;;;9.35;3.47;;;;;;;2.41;78.44;97500.94;6238820;23;20021;-92
2023/10/28 09:31:23;;;;;;;6.63;3.10;;;;;;;2.77;78.62;97549.47;6184729;23;20005;-91
2023/10/28 09:33:52;;;;;;;2.70;2.17;;;;;;;2.58;78.87;97530.75;6155860;23;20025;-92
2023/10/28 09:36:21;;;;;;;6.85;2.83;;;;;;;2.59;78.55;97506.19;6182504;23;20019;-90
2023/10/28 09:38:53;;;;;;;4.15;2.90;;;;;;;2.37;78.10;97473.00;6134236;23;20008;-90
2023/10/28 09:41:21;;;;;;;7.18;3.50;;;;;;;2.71;78.26;97518.31;6215189;23;20020;-90
2023/10/28 09:43:56;;;;;;;6.35;3.70;;;;;;;2.46;78.27;97473.88;6155675;23;20017;-92
2023/10/28 09:46:29;;;;;;;5.90;3.55;;;;;;;2.91;78.32;97527.81;6151045;23;20077;-92
2023/10/28 09:48:59;;;;;;;7.10;3.88;;;;;;;2.40;78.59;97453.50;6132442;23;20025;-88
2023/10/28 09:51:33;;;;;;;9.48;4.35;;;;;;;2.18;78.89;97435.41;6189680;23;20023;-91
2023/10/28 09:54:08;;;;;;;4.93;3.72;;;;;;;2.68;79.26;97494.66;6239287;23;20016;-91
2023/10/28 09:56:38;;;;;;;7.28;3.78;;;;;;;2.38;79.04;97458.41;6185824;23;20036;-91
2023/10/28 09:59:20;;;;;;;5.88;2.95;;;;;;;2.44;79.12;97462.56;6240885;23;20036;-92
2023/10/28 10:02:01;;;;;;;6.18;4.10;;;;;;;2.82;79.17;97512.38;6256139;23;20062;-88
2023/10/28 10:04:48;;;;;;;8.73;3.13;;;;;;;2.07;79.21;97403.28;6213556;23;20004;-90
2023/10/28 10:07:19;;;;;;;6.00;3.30;;;;;;;2.11;79.08;97396.19;6216817;23;20016;-91
2023/10/28 10:09:49;;;;;;;6.40;3.30;;;;;;;2.88;78.94;97486.09;6236917;23;20016;-90
2023/10/28 10:12:24;;;;;;;7.95;3.15;;;;;;;2.67;79.93;97469.56;6150531;23;20140;-91
2023/10/28 10:15:19;;;;;;;3.05;2.15;;;;;;;2.13;79.31;97400.50;6126704;23;20026;-90
2023/10/28 10:17:57;;;;;;;9.25;3.65;;;;;;;2.77;79.33;97480.13;6144308;23;20028;-90
2023/10/28 10:20:25;;;;;;;6.28;3.72;;;;;;;2.34;79.20;97405.09;6152095;23;20096;-89
2023/10/28 10:23:15;;;;;;;8.95;4.72;;;;;;;2.73;79.09;97470.25;6098308;23;20021;-92
2023/10/28 10:25:45;;;;;;;5.28;3.38;;;;;;;2.64;79.60;97469.38;6118355;23;20021;-90
2023/10/28 10:28:18;;;;;;;9.35;4.35;;;;;;;2.45;79.65;97438.03;6142275;23;20017;-90
2023/10/28 10:30:47;;;;;;;9.98;4.25;;;;;;;2.38;79.65;97432.22;6095323;23;20620;-89
2023/10/28 10:33:27;;;;;;;15.13;7.32;;;;;;;2.59;80.20;97463.03;6067833;23;20044;-89
2023/10/28 10:35:54;;;;;;;25.00;8.43;;;;;;;2.45;80.00;97443.41;6091692;23;20029;-90
2023/10/28 10:38:30;;;;;;;17.13;8.10;;;;;;;2.19;79.93;97408.16;6120476;23;20013;-89
2023/10/28 10:41:00;;;;;;;18.38;5.72;;;;;;;2.62;79.70;97464.31;6094845;23;20021;-91
2023/10/28 10:43:34;;;;;;;7.70;4.50;;;;;;;2.40;79.94;97413.84;6074435;23;20027;-89
2023/10/28 10:46:14;;;;;;;6.65;3.50;;;;;;;2.77;79.64;97471.22;6124924;23;20017;-90
2023/10/28 10:49:03;;;;;;;5.70;3.67;;;;;;;2.75;79.45;97455.38;6157924;23;20008;-91
2023/10/28 10:51:29;;;;;;;24.25;5.13;;;;;;;2.83;79.39;97453.81;6097905;23;20044;-92
2023/10/28 10:53:55;;;;;;;9.05;4.50;;;;;;;2.45;79.52;97380.56;6143790;23;20021;-89
2023/10/28 10:56:23;;;;;;;9.80;5.05;;;;;;;2.67;79.11;97395.94;6171161;23;20065;-92
2023/10/28 10:59:00;;;;;;;11.27;4.63;;;;;;;2.86;80.03;97431.63;6144805;23;20014;-91
2023/10/28 11:01:26;;;;;;;22.23;3.33;;;;;;;2.47;79.79;97408.81;6096653;23;20058;-92
2023/10/28 11:03:57;;;;;;;6.40;3.53;;;;;;;2.53;80.03;97399.50;6164931;23;20112;-92
2023/10/28 11:06:28;;;;;;;8.25;4.80;;;;;;;2.87;79.66;97421.63;6134263;23;20035;-89
2023/10/28 11:08:54;;;;;;;15.10;3.80;;;;;;;2.45;79.61;97353.59;6111188;23;20862;-89
2023/10/28 11:11:21;;;;;;;;;;;;;;;2.69;80.09;97418.81;6163219;23;20048;-87
2023/10/28 11:13:47;;;;;;;9.13;3.67;;;;;;;2.37;79.93;97352.47;6119572;23;20401;-88
2023/10/28 11:16:22;;;;;;;3.45;2.28;;;;;;;2.11;79.63;97331.50;6121229;23;20061;-91
2023/10/28 11:18:49;;;;;;;5.65;3.50;;;;;;;2.46;80.77;97382.97;6118879;23;20017;-89
2023/10/28 11:21:21;;;;;;;10.60;3.53;;;;;;;2.62;80.42;97402.28;6149902;23;20035;-91
2023/10/28 11:23:47;;;;;;;8.40;3.80;;;;;;;2.26;79.89;97327.66;6228901;23;20024;-90
2023/10/28 11:26:20;;;;;;;6.15;3.33;;;;;;;2.47;79.91;97360.28;6202280;23;20017;-90
2023/10/28 11:28:47;;;;;;;12.68;4.00;;;;;;;2.62;80.16;97377.22;6224722;23;20591;-90
2023/10/28 11:31:20;;;;;;;8.02;3.90;;;;;;;2.59;79.66;97370.53;6166788;23;20028;-92
2023/10/28 11:33:52;;;;;;;9.18;4.47;;;;;;;2.47;79.78;97330.63;6190343;23;20009;-91
2023/10/28 11:36:18;;;;;;;10.80;5.15;;;;;;;2.50;79.69;97319.22;6165386;23;20017;-89
2023/10/28 11:38:44;;;;;;;10.67;4.93;;;;;;;2.37;79.75;97317.41;6089697;23;20040;-92
2023/10/28 11:41:13;;;;;;;9.10;5.13;;;;;;;2.66;79.74;97368.19;6113732;23;20751;-90
2023/10/28 11:43:42;;;;;;;17.15;5.53;;;;;;;2.49;80.06;97339.22;6110251;23;20223;-90
2023/10/28 11:46:08;;;;;;;11.27;5.65;;;;;;;2.46;80.05;97336.34;6109829;23;20017;-89
2023/10/28 11:48:34;;;;;;;7.75;4.30;;;;;;;2.78;79.86;97381.91;6086573;23;20529;-88
2023/10/28 11:51:05;;;;;;;14.75;6.18;;;;;;;2.73;79.61;97351.56;6112611;23;20022;-88
2023/10/28 11:53:32;;;;;;;10.65;5.32;;;;;;;2.46;79.60;97309.38;6113681;23;20022;-89
2023/10/28 11:55:58;;;;;;;;;;;;;;;2.90;79.38;97373.22;6110690;23;20028;-90
2023/10/28 11:58:24;;;;;;;7.05;4.40;;;;;;;2.52;79.53;97333.22;6107086;23;19936;-90
2023/10/28 12:00:55;;;;;;;7.68;4.45;;;;;;;2.23;79.97;97297.81;6084438;23;20154;-92
2023/10/28 12:03:23;;;;;;;10.23;5.43;;;;;;;2.23;80.41;97293.22;6161599;23;20024;-90
2023/10/28 12:05:49;;;;;;;8.27;4.75;;;;;;;2.50;80.61;97331.91;6137473;23;20028;-91
2023/10/28 12:08:16;;;;;;;7.38;4.20;;;;;;;2.39;80.23;97326.00;6111192;23;20037;-90
2023/10/28 12:10:50;;;;;;;7.15;5.38;;;;;;;2.54;81.18;97349.06;6193813;23;20017;-89
2023/10/28 12:13:21;;;;;;;8.35;4.60;;;;;;;2.12;81.09;97316.16;6201289;23;20048;-91
2023/10/28 12:15:48;;;;;;;17.67;5.45;;;;;;;2.22;81.07;97304.31;6230125;23;20016;-91
2023/10/28 12:18:16;;;;;;;7.95;4.43;;;;;;;2.57;80.76;97353.84;6235028;23;20124;-91
2023/10/28 12:20:46;;;;;;;11.95;5.28;;;;;;;2.45;81.05;97332.03;6240618;23;20005;-89
2023/10/28 12:23:16;;;;;;;9.88;4.30;;;;;;;2.42;81.17;97322.69;6216487;23;20005;-89
2023/10/28 12:29:30;;;;;;;8.32;4.90;;;;;;;2.40;80.89;97321.41;6093621;23;20066;-89
2023/10/28 12:31:57;;;;;;;12.85;5.40;;;;;;;2.76;80.87;97345.53;6091338;23;20070;-92
2023/10/28 12:34:24;;;;;;;7.18;4.85;;;;;;;2.46;80.77;97323.66;6076083;23;20036;-90
2023/10/28 12:36:51;;;;;;;11.80;4.35;;;;;;;2.54;80.67;97306.72;6029136;23;20019;-94
2023/10/28 12:39:20;;;;;;;11.57;5.05;;;;;;;2.36;80.47;97270.00;6030202;23;20019;-92
2023/10/28 12:42:08;;;;;;;7.45;4.45;;;;;;;2.45;80.19;97288.91;6020788;23;20498;-94
2023/10/28 12:47:28;;;;;;;9.68;4.70;;;;;;;2.57;80.41;97316.09;6027374;23;20039;-91
2023/10/28 12:49:56;;;;;;;8.40;4.60;;;;;;;2.27;80.29;97271.84;6024300;23;20075;-90
2023/10/28 12:52:23;;;;;;;8.85;4.70;;;;;;;2.49;80.38;97289.88;6047134;23;20019;-88
2023/10/28 12:54:56;;;;;;;9.02;4.80;;;;;;;2.71;80.23;97316.78;6033124;23;20011;-91
2023/10/28 12:57:31;;;;;;;7.13;3.72;;;;;;;2.86;79.37;97310.19;6062696;23;20007;-91
2023/10/28 13:00:24;;;;;;;6.15;3.78;;;;;;;2.89;78.98;97327.66;6063800;23;20023;-91
2023/10/28 13:03:03;;;;;;;9.07;4.93;;;;;;;2.23;79.63;97214.28;6065718;23;19999;-90
2023/10/28 13:05:34;;;;;;;7.75;4.32;;;;;;;2.65;78.82;97277.59;6108849;23;20033;-91
2023/10/28 13:08:21;;;;;;;10.98;5.00;;;;;;;2.94;79.04;97314.03;6094094;23;20009;-88
2023/10/28 13:10:47;;;;;;;10.20;4.68;;;;;;;2.33;78.91;97227.47;6066051;23;20074;-87
2023/10/28 13:13:14;;;;;;;14.15;5.78;;;;;;;2.83;79.36;97294.63;6063412;23;20019;-88
2023/10/28 13:15:42;;;;;;;21.60;5.25;;;;;;;2.95;78.98;97311.03;6087042;23;19998;-87
2023/10/28 13:18:14;;;;;;;11.43;4.70;;;;;;;2.49;78.76;97254.84;6083910;23;20086;-93
2023/10/28 13:20:41;;;;;;;19.17;5.15;;;;;;;2.98;78.68;97305.00;6084716;23;20014;-91
2023/10/28 13:23:07;;;;;;;9.77;5.53;;;;;;;2.94;78.94;97298.63;6134479;23;20018;-88
2023/10/28 13:25:41;;;;;;;13.15;5.60;;;;;;;3.03;78.70;97307.56;6107349;23;20113;-94
2023/10/28 13:28:09;;;;;;;12.55;5.95;;;;;;;2.64;78.49;97240.13;6108036;23;20041;-93
2023/10/28 13:30:40;;;;;;;11.07;5.82;;;;;;;2.92;78.21;97294.66;6116689;23;20024;-87
2023/10/28 13:33:07;;;;;;;16.85;6.40;;;;;;;2.79;78.95;97274.78;6095087;23;20123;-93
2023/10/28 13:35:34;;;;;;;11.90;5.82;;;;;;;2.34;78.52;97234.44;6141657;23;20017;-87
2023/10/28 13:38:00;;;;;;;13.93;6.60;;;;;;;2.57;78.77;97246.75;6110016;23;20097;-87
2023/10/28 13:40:27;;;;;;;20.73;7.25;;;;;;;2.70;78.42;97257.75;6085884;23;20053;-88
2023/10/28 13:42:53;;;;;;;10.57;6.32;;;;;;;2.77;78.51;97271.59;6125088;23;20029;-86
2023/10/28 13:45:21;;;;;;;9.07;5.07;;;;;;;2.44;78.31;97236.09;6156690;23;20020;-86
2023/10/28 13:47:51;;;;;;;;;;;;;;;2.83;79.05;97294.63;6188877;23;20048;-88
2023/10/28 13:50:18;;;;;;;10.13;6.72;;;;;;;2.77;78.67;97275.09;6217324;23;20376;-87
2023/10/28 13:52:48;;;;;;;12.93;7.25;;;;;;;2.70;78.67;97273.94;6191434;23;20354;-86
2023/10/28 13:55:14;;;;;;;16.33;7.07;;;;;;;2.82;78.93;97291.13;6214845;23;20557;-86
2023/10/28 13:57:43;;;;;;;14.30;6.97;;;;;;;2.69;78.94;97267.75;6189465;23;20032;-85
2023/10/28 14:00:13;;;;;;;12.35;7.53;;;;;;;2.79;78.58;97253.19;6140679;23;20024;-86
2023/10/28 14:02:41;;;;;;;13.25;6.78;;;;;;;2.90;78.26;97270.69;6165414;23;20064;-86
2023/10/28 14:05:08;;;;;;;13.75;7.05;;;;;;;2.66;78.20;97224.44;6190914;23;20044;-86
2023/10/28 14:07:35;;;;;;;10.20;5.82;;;;;;;2.92;78.17;97292.75;6188969;23;20013;-85
2023/10/28 14:10:03;;;;;;;7.20;5.03;;;;;;;2.68;78.28;97254.56;6215026;23;20024;-86
2023/10/28 14:12:32;;;;;;;7.93;4.15;;;;;;;2.85;78.13;97265.44;6213521;23;20040;-89
2023/10/28 14:15:00;;;;;;;6.28;4.45;;;;;;;2.74;78.87;97267.59;6188347;23;20667;-89
2023/10/28 14:17:29;;;;;;;10.57;5.10;;;;;;;2.44;78.92;97223.38;6218288;23;20016;-87
2023/10/28 14:19:56;;;;;;;8.27;4.50;;;;;;;2.72;78.91;97266.34;6171964;23;20024;-89
2023/10/28 14:22:22;;;;;;;7.65;4.70;;;;;;;2.93;78.93;97286.25;6191110;23;20024;-85
2023/10/28 14:24:49;;;;;;;7.85;4.47;;;;;;;2.98;78.37;97278.03;6166492;23;20020;-88
2023/10/28 14:27:15;;;;;;;10.00;4.40;;;;;;;3.05;77.96;97288.34;6142559;23;20025;-88
2023/10/28 14:29:44;;;;;;;11.80;5.45;;;;;;;2.77;77.63;97223.03;6170183;23;20111;-87
2023/10/28 14:32:16;;;;;;;8.77;4.70;;;;;;;2.85;77.96;97243.84;6222340;23;20044;-88
2023/10/28 14:34:45;;;;;;;7.95;4.65;;;;;;;3.06;77.92;97268.34;6120776;23;20056;-87
2023/10/28 14:37:11;;;;;;;13.88;4.95;;;;;;;2.95;77.38;97248.97;6192411;23;20017;-88
2023/10/28 14:39:37;;;;;;;11.43;5.28;;;;;;;3.21;77.09;97286.00;6164755;23;20024;-88
2023/10/28 14:42:04;;;;;;;8.15;4.60;;;;;;;2.95;77.00;97256.28;6189360;23;20019;-89
2023/10/28 14:44:31;;;;;;;6.30;4.03;;;;;;;3.14;76.51;97275.66;6188235;23;20020;-86
2023/10/28 14:46:57;;;;;;;;;;;;;;;3.07;76.79;97275.34;6188777;23;20016;-89
2023/10/28 14:49:28;;;;;;;6.22;4.35;;;;;;;2.97;77.04;97276.41;6220313;23;19997;-88
2023/10/28 14:51:57;;;;;;;7.78;3.53;;;;;;;2.55;77.10;97219.31;6190027;23;20016;-89
2023/10/28 14:54:25;;;;;;;7.47;3.67;;;;;;;2.91;77.17;97274.97;6217281;23;20058;-87
2023/10/28 14:56:54;;;;;;;8.73;3.78;;;;;;;2.54;77.44;97215.03;6192707;23;20016;-88
2023/10/28 14:59:21;;;;;;;9.93;4.15;;;;;;;2.73;77.42;97257.94;6140969;23;20497;-85
2023/10/28 15:01:54;;;;;;;5.63;4.03;;;;;;;2.57;77.60;97219.00;6191901;23;20048;-87
2023/10/28 15:04:22;;;;;;;13.63;4.03;;;;;;;2.84;77.35;97244.94;6216503;23;20021;-84
2023/10/28 15:06:48;;;;;;;8.05;3.70;;;;;;;2.97;76.76;97260.22;6186716;23;20110;-86
2023/10/28 15:09:16;;;;;;;7.07;3.70;;;;;;;2.94;76.57;97252.75;6162734;23;20012;-86
2023/10/28 15:11:44;;;;;;;5.43;3.63;;;;;;;2.91;76.69;97256.06;6161325;23;20470;-86
2023/10/28 15:14:12;;;;;;;8.07;3.70;;;;;;;2.98;76.85;97274.50;6185919;23;20016;-85
2023/10/28 15:16:39;;;;;;;9.52;4.72;;;;;;;2.85;76.90;97251.13;6185131;23;20016;-85
2023/10/28 15:19:09;;;;;;;8.95;4.32;;;;;;;2.90;77.00;97267.97;6213192;23;20116;-87
2023/10/28 15:21:35;;;;;;;7.47;4.68;;;;;;;2.50;77.86;97219.44;6185875;23;20103;-85
2023/10/28 15:24:01;;;;;;;5.50;3.63;;;;;;;2.30;77.33;97212.72;6159298;23;20409;-86
2023/10/28 15:26:29;;;;;;;15.30;4.05;;;;;;;2.52;78.01;97217.25;6210376;23;20099;-85
2023/10/28 15:28:55;;;;;;;9.38;3.55;;;;;;;2.86;77.71;97274.34;6164323;23;20739;-86
2023/10/28 15:31:22;;;;;;;3.35;2.63;;;;;;;2.47;77.18;97217.38;6194819;23;20020;-87
2023/10/28 15:33:48;;;;;;;7.15;3.88;;;;;;;2.73;77.10;97249.06;6190932;23;20044;-89
2023/10/28 15:36:16;;;;;;;9.45;3.65;;;;;;;2.95;77.34;97261.66;6194917;23;20016;-88
2023/10/28 15:38:42;;;;;;;11.77;3.67;;;;;;;2.84;77.42;97269.22;6216504;23;20048;-88
2023/10/28 15:41:10;;;;;;;8.55;3.47;;;;;;;2.71;77.71;97254.75;6139401;23;20064;-86
2023/10/28 15:43:40;;;;;;;10.25;2.80;;;;;;;2.83;76.59;97267.66;6140833;23;20026;-86
2023/10/28 15:46:10;;;;;;;5.47;2.88;;;;;;;2.77;76.86;97272.38;6190148;23;20539;-87
2023/10/28 15:48:41;;;;;;;7.15;3.97;;;;;;;2.88;77.59;97278.31;6214426;23;20012;-88
2023/10/28 15:51:12;;;;;;;4.18;3.00;;;;;;;2.59;77.33;97238.38;6165476;23;20020;-89
2023/10/28 15:53:41;;;;;;;5.28;3.45;;;;;;;2.74;77.88;97269.50;6189745;23;20103;-89
2023/10/28 15:56:12;;;;;;;5.68;3.00;;;;;;;2.35;77.73;97204.50;6163034;23;20363;-88
2023/10/28 15:58:40;;;;;;;6.15;2.88;;;;;;;2.47;77.83;97228.16;6213994;23;20040;-87
2023/10/28 16:01:08;;;;;;;9.50;3.65;;;;;;;2.54;78.57;97242.00;6186082;23;20023;-87
2023/10/28 16:03:36;;;;;;;4.43;2.97;;;;;;;2.65;78.50;97252.50;6161186;23;20017;-86
2023/10/28 16:06:10;;;;;;;4.75;2.58;;;;;;;2.62;78.51;97243.16;6165706;23;20029;-88
2023/10/28 16:08:38;;;;;;;5.55;3.13;;;;;;;2.57;78.17;97229.78;6190675;23;20079;-84
2023/10/28 16:11:05;;;;;;;4.70;2.75;;;;;;;2.84;78.04;97266.53;6161385;23;20111;-89
2023/10/28 16:13:35;;;;;;;5.20;2.90;;;;;;;2.56;77.63;97229.00;6188338;23;20020;-88
2023/10/28 16:16:01;;;;;;;5.95;3.45;;;;;;;2.91;78.01;97274.97;6163930;23;20049;-88
2023/10/28 16:18:28;;;;;;;4.93;3.22;;;;;;;2.45;78.49;97214.22;6096815;23;20214;-88
2023/10/28 16:20:58;;;;;;;5.82;3.33;;;;;;;2.71;78.50;97268.22;6119675;23;20018;-90
2023/10/28 16:23:27;;;;;;;4.35;2.83;;;;;;;2.71;78.52;97256.66;6073645;23;20025;-88
2023/10/28 16:25:55;;;;;;;5.57;3.30;;;;;;;2.74;78.76;97274.91;6092158;23;20029;-89
2023/10/28 16:28:23;;;;;;;4.90;3.00;;;;;;;2.47;79.09;97224.69;6095333;23;20022;-89
2023/10/28 16:30:52;;;;;;;5.28;2.72;;;;;;;2.46;78.58;97225.78;6120474;23;20126;-87
2023/10/28 16:33:19;;;;;;;4.95;3.17;;;;;;;2.56;78.83;97242.47;6126206;23;20073;-89
2023/10/28 16:35:45;;;;;;;5.00;3.47;;;;;;;2.62;78.94;97263.94;6055640;23;20419;-89
2023/10/28 16:38:12;;;;;;;6.30;3.17;;;;;;;2.26;78.69;97210.97;6129232;23;20021;-88
2023/10/28 16:40:41;;;;;;;4.32;2.75;;;;;;;2.64;78.94;97267.09;6123618;23;20500;-87
2023/10/28 16:43:08;;;;;;;6.32;3.53;;;;;;;2.62;79.14;97280.13;6097528;23;20352;-88
2023/10/28 16:45:35;;;;;;;6.35;3.47;;;;;;;2.65;79.49;97274.06;6073762;23;20110;-87
2023/10/28 16:48:01;;;;;;;5.07;3.47;;;;;;;2.32;79.55;97242.06;6091737;23;20668;-88
2023/10/28 16:50:32;;;;;;;4.32;3.03;;;;;;;2.10;79.75;97219.44;6094798;23;20092;-86
2023/10/28 16:52:59;;;;;;;3.92;2.40;;;;;;;1.98;79.72;97211.13;6119215;23;20022;-87
2023/10/28 16:55:27;;;;;;;3.55;2.15;;;;;;;2.44;80.08;97282.72;6096316;23;20025;-89
2023/10/28 16:57:53;;;;;;;8.57;2.97;;;;;;;2.33;79.60;97265.22;6072765;23;20568;-88
2023/10/28 17:00:21;;;;;;;3.92;2.65;;;;;;;2.43;79.25;97275.72;6092373;23;20631;-92
2023/10/28 17:02:47;;;;;;;2.83;2.15;;;;;;;2.32;79.71;97256.34;6140821;23;20016;-87
2023/10/28 17:05:13;;;;;;;3.65;2.58;;;;;;;2.15;79.64;97226.56;6210389;23;20024;-87
2023/10/28 17:07:42;;;;;;;;;;;;;;;2.42;79.87;97276.84;6163835;23;20072;-87
2023/10/28 17:10:11;;;;;;;4.97;2.30;;;;;;;2.19;79.71;97253.75;6182670;23;19920;-87
2023/10/28 17:12:39;;;;;;;5.88;1.90;;;;;;;2.11;79.79;97236.41;6183084;23;20684;-87
2023/10/28 17:15:09;;;;;;;;;;;;;;;2.44;79.73;97298.09;6158847;23;20021;-88
2023/10/28 17:17:37;;;;;;;4.10;2.75;;;;;;;2.16;79.67;97254.34;6185237;23;19958;-88
2023/10/28 17:20:04;;;;;;;;;;;;;;;2.41;79.88;97286.03;6162084;23;20461;-87
2023/10/28 17:22:31;;;;;;;4.90;2.55;;;;;;;2.10;79.92;97251.78;6207651;23;20807;-86
2023/10/28 17:24:57;;;;;;;3.72;2.60;;;;;;;2.17;79.98;97277.50;6212981;23;20016;-88
2023/10/28 17:27:26;;;;;;;7.20;3.20;;;;;;;1.92;80.08;97225.03;6213029;23;20093;-88
2023/10/28 17:29:53;;;;;;;2.87;2.50;;;;;;;1.88;80.09;97235.63;6165402;23;20103;-86
2023/10/28 17:32:24;;;;;;;4.88;3.05;;;;;;;2.24;80.48;97289.41;6222716;23;20013;-90
2023/10/28 17:34:53;;;;;;;4.13;2.42;;;;;;;2.02;80.95;97257.91;6169575;23;20063;-85
2023/10/28 17:37:19;;;;;;;3.20;2.40;;;;;;;1.77;80.91;97231.59;6157475;23;20020;-85
2023/10/28 17:39:45;;;;;;;6.65;3.08;;;;;;;1.92;81.28;97247.41;6211967;23;20020;-88
2023/10/28 17:42:16;;;;;;;8.93;2.17;;;;;;;2.18;81.08;97297.94;6163512;23;20016;-86
2023/10/28 17:44:42;;;;;;;5.07;2.75;;;;;;;1.92;81.09;97246.56;6205658;23;20020;-86
2023/10/28 17:47:08;;;;;;;2.88;2.25;;;;;;;1.95;81.03;97279.09;6203328;23;20020;-84
2023/10/28 17:49:35;;;;;;;2.75;2.08;;;;;;;1.88;81.05;97268.72;6179107;23;20021;-83
2023/10/28 17:52:02;;;;;;;2.90;2.00;;;;;;;2.01;81.20;97277.06;6204226;23;20442;-87
2023/10/28 17:54:32;;;;;;;2.53;1.80;;;;;;;2.01;80.77;97302.13;6202227;23;20071;-84
2023/10/28 17:57:01;;;;;;;3.85;2.67;;;;;;;2.07;80.74;97295.50;6203966;23;20012;-89
2023/10/28 17:59:28;;;;;;;5.22;3.25;;;;;;;2.08;81.00;97315.94;6202445;23;20038;-84
2023/10/28 18:01:54;;;;;;;3.22;1.98;;;;;;;1.58;80.90;97235.25;6200694;23;20825;-86
2023/10/28 18:04:22;;;;;;;2.67;2.28;;;;;;;1.80;81.15;97282.16;6182751;23;20072;-83
2023/10/28 18:06:48;;;;;;;3.13;2.05;;;;;;;2.00;81.21;97302.44;6171541;23;20382;-85
2023/10/28 18:09:14;;;;;;;3.33;1.98;;;;;;;1.79;81.18;97272.50;6170767;23;20024;-86
2023/10/28 18:11:43;;;;;;;4.00;2.35;;;;;;;1.84;81.61;97291.22;6221201;23;20035;-88
2023/10/28 18:14:09;;;;;;;4.47;2.40;;;;;;;1.65;81.73;97259.84;6219801;23;20047;-87
2023/10/28 18:16:35;;;;;;;2.67;2.00;;;;;;;1.90;81.69;97290.00;6196089;23;20025;-88
2023/10/28 18:19:02;;;;;;;2.93;2.23;;;;;;;2.03;81.43;97309.91;6183396;23;20357;-85
2023/10/28 18:21:29;;;;;;;3.03;2.00;;;;;;;1.98;81.39;97300.03;6186769;23;20258;-86
2023/10/28 18:23:56;;;;;;;3.72;2.58;;;;;;;1.85;81.36;97280.16;6211472;23;20359;-88
2023/10/28 18:26:25;;;;;;;3.45;1.50;;;;;;;2.06;81.24;97334.34;6209631;23;20343;-85
2023/10/28 18:28:52;;;;;;;5.18;2.85;;;;;;;2.07;81.44;97330.53;6203137;23;20023;-84
2023/10/28 18:31:21;;;;;;;2.90;2.28;;;;;;;2.07;81.23;97325.13;6202425;23;20016;-86
2023/10/28 18:33:55;;;;;;;4.22;2.30;;;;;;;2.17;81.08;97334.88;6178813;23;20078;-89
2023/10/28 18:36:22;;;;;;;3.55;1.67;;;;;;;2.11;80.84;97334.19;6157117;23;20071;-89
2023/10/28 18:38:49;;;;;;;2.30;1.88;;;;;;;2.13;80.91;97339.31;6163117;23;20008;-90
2023/10/28 18:41:16;;;;;;;;;;;;;;;2.18;80.93;97341.84;6182463;23;20016;-84
2023/10/28 18:43:43;;;;;;;3.27;2.40;;;;;;;2.02;80.96;97322.59;6207295;23;19916;-84
2023/10/28 18:46:10;;;;;;;4.10;2.33;;;;;;;2.18;81.29;97344.56;6203503;23;20054;-85
2023/10/28 18:48:38;;;;;;;;;;;;;;;2.21;80.96;97349.31;6179843;23;20016;-83
2023/10/28 18:51:07;;;;;;;3.47;2.30;;;;;;;1.77;80.68;97275.47;6205229;23;19982;-85
2023/10/28 18:53:35;;;;;;;4.05;2.47;;;;;;;2.15;80.64;97342.47;6162152;23;20017;-89
2023/10/28 18:56:13;;;;;;;3.42;2.25;;;;;;;2.14;80.68;97346.28;6169537;23;20048;-89
2023/10/28 18:58:40;;;;;;;3.72;2.20;;;;;;;2.07;80.83;97340.53;6145037;23;20012;-89
2023/10/28 19:01:10;;;;;;;;;;;;;;;2.26;80.50;97354.63;6138682;23;20047;-89
2023/10/28 19:03:36;;;;;;;3.92;1.83;;;;;;;1.83;80.23;97303.09;6140415;23;19916;-89
2023/10/28 19:06:04;;;;;;;;;;;;;;;2.16;80.29;97364.84;6133130;23;20141;-88
2023/10/28 19:08:30;;;;;;;7.35;3.75;;;;;;;2.09;81.26;97338.31;6083746;23;19916;-88
2023/10/28 19:10:58;;;;;;;4.07;2.42;;;;;;;2.28;80.71;97351.59;6138655;23;20044;-88
2023/10/28 19:13:28;;;;;;;4.18;2.67;;;;;;;1.72;80.11;97278.28;6162837;23;20014;-89
2023/10/28 19:16:01;;;;;;;6.63;2.35;;;;;;;2.02;80.17;97322.59;6168116;23;20026;-90
2023/10/28 19:18:38;;;;;;;3.72;2.22;;;;;;;1.81;79.67;97294.50;6132730;23;20021;-88
2023/10/28 19:21:10;;;;;;;2.17;1.65;;;;;;;1.91;79.97;97328.50;6115132;23;20112;-90
2023/10/28 19:23:45;;;;;;;3.70;2.13;;;;;;;2.03;79.91;97331.47;6169344;23;20092;-91
2023/10/28 19:26:11;;;;;;;5.10;2.50;;;;;;;1.86;79.99;97299.78;6151515;23;20021;-87
2023/10/28 19:28:39;;;;;;;3.45;2.20;;;;;;;2.17;79.89;97355.66;6153382;23;20005;-89
2023/10/28 19:31:05;;;;;;;3.47;2.28;;;;;;;1.95;79.66;97324.09;6145009;23;20024;-89
2023/10/28 19:33:33;;;;;;;3.33;1.95;;;;;;;1.84;79.49;97320.84;6121578;23;20107;-92